Terminal Aerodrome Forecast
Issued by NWS

Current Version | Previous Version | Text Only | Print | Product List | Glossary On
Versions: 1 2 3 4 5 6 7 8 9 10 11 12 13 14 15 16 17 18 19 20 21 22 23 24 25 26 27 28 29 30 31 32
000
FTUS41 KCTP 241548 AAA
TAFUNV
TAF AMD
KUNV 241548Z 2416/2512 29009G15KT P6SM BKN220
     FM242300 29006KT P6SM BKN220
     FM250600 28006KT P6SM SCT035 BKN180=

USA.gov is the U.S. government's official web portal to all federal, state and local government web resources and services.